Time;durP1;ratioP1;P1;durP2;ratioP2;P2;SDS_P1;SDS_P2;PMS_P1;PMS_P2;Temp;Humidity;BMP_temperature;BMP_pressure;BME280_temperature;BME280_humidity;BME280_pressure;Samples;Min_cycle;Max_cycle;Signal;HPM_P1;HPM_P2
2023/05/16 00:02:07;;;;;;;15.57;2.40;;;9.00;99.90;;;;;;5050106;28;20052;-62
2023/05/16 00:04:35;;;;;;;17.27;3.63;;;8.90;99.90;;;;;;5032930;28;20049;-62
2023/05/16 00:07:00;;;;;;;14.52;2.50;;;8.90;99.90;;;;;;5051062;28;21176;-62
2023/05/16 00:09:26;;;;;;;15.63;2.15;;;8.90;99.90;;;;;;5049554;28;20033;-59
2023/05/16 00:11:52;;;;;;;17.30;2.40;;;8.90;99.90;;;;;;5049443;28;20045;-62
2023/05/16 00:14:18;;;;;;;18.02;3.25;;;8.90;99.90;;;;;;5050697;28;20037;-63
2023/05/16 00:16:44;;;;;;;14.77;2.58;;;8.90;99.90;;;;;;5050373;28;20427;-63
2023/05/16 00:19:10;;;;;;;15.50;2.75;;;8.80;99.90;;;;;;5049516;28;20053;-61
2023/05/16 00:21:35;;;;;;;18.02;3.03;;;8.80;99.90;;;;;;5049630;28;20129;-61
2023/05/16 00:24:02;;;;;;;13.25;2.25;;;8.80;99.90;;;;;;5050809;28;20037;-60
2023/05/16 00:26:28;;;;;;;11.15;1.83;;;8.80;99.90;;;;;;5049656;28;20048;-61
2023/05/16 00:28:54;;;;;;;13.60;2.63;;;8.80;99.90;;;;;;5049451;28;20045;-62
2023/05/16 00:31:19;;;;;;;16.13;2.22;;;8.70;99.90;;;;;;5050753;28;20043;-64
2023/05/16 00:33:45;;;;;;;11.70;1.98;;;8.70;99.90;;;;;;5049196;28;20055;-62
2023/05/16 00:36:11;;;;;;;18.98;2.70;;;8.70;99.90;;;;;;5048838;28;20052;-62
2023/05/16 00:38:36;;;;;;;14.65;2.53;;;8.60;99.90;;;;;;5050466;28;20075;-62
2023/05/16 00:41:03;;;;;;;11.63;2.72;;;8.60;99.90;;;;;;5050645;28;20043;-62
2023/05/16 00:43:29;;;;;;;11.43;2.00;;;8.50;99.90;;;;;;5049360;28;20043;-60
2023/05/16 00:45:56;;;;;;;10.93;3.28;;;8.50;99.90;;;;;;5048911;28;20052;-63
2023/05/16 00:48:22;;;;;;;16.25;3.35;;;8.50;99.90;;;;;;5049054;28;20365;-62
2023/05/16 00:50:49;;;;;;;13.95;2.10;;;8.40;99.90;;;;;;5049311;28;20476;-63
2023/05/16 00:53:15;;;;;;;13.40;2.15;;;8.40;99.90;;;;;;5049142;28;20468;-61
2023/05/16 00:55:41;;;;;;;10.48;2.20;;;8.40;99.90;;;;;;5048750;28;20088;-60
2023/05/16 00:58:10;;;;;;;10.02;1.60;;;8.30;99.90;;;;;;5050162;28;20495;-61
2023/05/16 01:00:36;;;;;;;11.90;1.77;;;8.30;99.90;;;;;;5049110;28;20044;-61
2023/05/16 01:03:04;;;;;;;13.15;1.90;;;8.20;99.90;;;;;;5050112;28;20395;-59
2023/05/16 01:05:30;;;;;;;14.10;2.13;;;8.20;99.90;;;;;;5048903;28;20063;-64
2023/05/16 01:07:56;;;;;;;13.80;2.30;;;8.20;99.90;;;;;;5052197;28;20115;-62
2023/05/16 01:10:22;;;;;;;13.88;2.10;;;8.20;99.90;;;;;;5053040;28;20132;-60
2023/05/16 01:13:23;;;;;;;13.27;1.92;;;8.20;99.90;;;;;;5052814;28;20044;-64
2023/05/16 01:15:59;;;;;;;10.43;2.25;;;8.10;99.90;;;;;;5050248;28;20045;-63
2023/05/16 01:18:49;;;;;;;15.95;2.13;;;8.10;99.90;;;;;;5054301;28;20100;-61
2023/05/16 01:22:04;;;;;;;15.70;2.08;;;8.00;99.90;;;;;;5045327;28;20057;-60
2023/05/16 01:24:38;;;;;;;9.43;1.88;;;8.00;99.90;;;;;;5031903;28;20457;-62
2023/05/16 01:27:05;;;;;;;9.48;1.70;;;8.00;99.90;;;;;;5015371;28;20049;-60
2023/05/16 01:29:31;;;;;;;10.38;1.67;;;8.00;99.90;;;;;;5031418;28;20041;-62
2023/05/16 01:31:57;;;;;;;14.73;2.42;;;8.00;99.90;;;;;;5031575;28;20395;-63
2023/05/16 01:34:22;;;;;;;12.75;1.85;;;7.90;99.90;;;;;;5031511;28;20563;-61
2023/05/16 01:37:27;;;;;;;11.93;1.83;;;7.90;99.90;;;;;;5014763;28;20057;-62
2023/05/16 01:39:56;;;;;;;12.38;1.85;;;7.90;99.90;;;;;;4975659;28;20437;-61
2023/05/16 01:42:26;;;;;;;9.95;1.45;;;7.90;99.90;;;;;;4991844;28;20517;-62
2023/05/16 01:45:13;;;;;;;13.55;2.20;;;7.90;99.90;;;;;;4992034;28;20044;-63
2023/05/16 01:47:43;;;;;;;13.77;2.00;;;7.90;99.90;;;;;;4992083;28;20056;-62
2023/05/16 01:50:13;;;;;;;11.45;1.80;;;7.90;99.90;;;;;;4975352;28;20449;-63
2023/05/16 01:53:01;;;;;;;12.85;2.00;;;7.80;99.90;;;;;;4991838;28;20050;-62
2023/05/16 01:55:44;;;;;;;14.35;3.13;;;7.80;99.90;;;;;;5017837;28;20083;-61
2023/05/16 01:58:12;;;;;;;8.57;1.40;;;7.90;99.90;;;;;;5031290;28;20049;-59
2023/05/16 02:00:42;;;;;;;10.63;1.95;;;7.80;99.90;;;;;;5031330;28;20597;-62
2023/05/16 02:03:08;;;;;;;11.35;1.85;;;7.80;99.90;;;;;;5014713;28;20060;-61
2023/05/16 02:05:33;;;;;;;10.60;1.73;;;7.80;99.90;;;;;;5030911;28;20037;-61
2023/05/16 02:08:00;;;;;;;11.63;2.10;;;7.80;99.90;;;;;;5030997;28;20045;-62
2023/05/16 02:10:26;;;;;;;10.18;1.70;;;7.80;99.90;;;;;;5014410;28;20037;-62
2023/05/16 02:12:52;;;;;;;8.30;1.63;;;7.80;99.90;;;;;;5031078;28;20080;-63
2023/05/16 02:15:18;;;;;;;9.85;1.73;;;7.70;99.90;;;;;;5046944;28;20049;-62
2023/05/16 02:17:44;;;;;;;10.95;1.58;;;7.70;99.90;;;;;;5052881;28;20076;-62
2023/05/16 02:20:11;;;;;;;7.68;1.33;;;7.70;99.90;;;;;;5051657;28;20501;-63
2023/05/16 02:22:42;;;;;;;10.60;1.90;;;7.70;99.90;;;;;;5052960;28;20056;-61
2023/05/16 02:25:08;;;;;;;8.52;1.60;;;7.70;99.90;;;;;;5051722;28;20091;-62
2023/05/16 02:27:35;;;;;;;11.43;2.30;;;7.60;99.90;;;;;;5052772;28;20064;-63
2023/05/16 02:30:01;;;;;;;11.82;2.25;;;7.70;99.90;;;;;;5051606;28;20044;-63
2023/05/16 02:32:26;;;;;;;13.07;1.45;;;7.60;99.90;;;;;;5051436;28;20033;-61
2023/05/16 02:34:52;;;;;;;14.30;2.00;;;7.60;99.90;;;;;;5052656;28;20052;-61
2023/05/16 02:37:17;;;;;;;14.63;1.92;;;7.60;99.90;;;;;;5051301;28;20029;-60
2023/05/16 02:39:43;;;;;;;10.20;1.60;;;7.50;99.90;;;;;;5051235;28;20076;-61
2023/05/16 02:42:09;;;;;;;11.73;1.95;;;7.40;99.90;;;;;;5051309;28;20041;-61
2023/05/16 02:44:34;;;;;;;9.80;1.50;;;7.40;99.90;;;;;;5051115;28;20041;-61
2023/05/16 02:47:00;;;;;;;6.82;1.80;;;7.40;99.90;;;;;;5051238;28;20408;-61
2023/05/16 02:49:25;;;;;;;11.68;1.75;;;7.30;99.90;;;;;;5050941;28;20041;-63
2023/05/16 02:51:51;;;;;;;8.32;1.60;;;7.30;99.90;;;;;;5052425;28;20133;-63
2023/05/16 02:54:17;;;;;;;12.73;2.17;;;7.30;99.90;;;;;;5052300;28;20119;-64
2023/05/16 02:56:43;;;;;;;9.05;2.03;;;7.30;99.90;;;;;;5052044;28;20073;-63
2023/05/16 02:59:10;;;;;;;6.35;1.40;;;7.30;99.90;;;;;;5052201;28;20037;-62
2023/05/16 03:01:36;;;;;;;12.13;2.53;;;7.30;99.90;;;;;;5052379;28;20087;-61
2023/05/16 03:04:02;;;;;;;12.55;2.10;;;7.20;99.90;;;;;;5052152;28;20037;-62
2023/05/16 03:06:29;;;;;;;11.40;1.98;;;7.20;99.90;;;;;;5050954;28;20045;-65
2023/05/16 03:08:55;;;;;;;11.65;2.35;;;7.20;99.90;;;;;;5052103;28;20086;-62
2023/05/16 03:11:21;;;;;;;10.13;1.48;;;7.20;99.90;;;;;;5050642;28;20041;-61
2023/05/16 03:13:47;;;;;;;11.73;2.08;;;7.20;99.90;;;;;;5051850;28;20079;-64
2023/05/16 03:16:12;;;;;;;13.25;1.83;;;7.20;99.90;;;;;;5050638;28;20056;-63
2023/05/16 03:18:38;;;;;;;8.90;1.67;;;7.20;99.90;;;;;;5050347;28;20120;-61
2023/05/16 03:21:04;;;;;;;12.75;1.75;;;7.20;99.90;;;;;;5050450;28;20057;-60
2023/05/16 03:23:30;;;;;;;9.95;1.65;;;7.10;99.90;;;;;;5050432;28;20040;-61
2023/05/16 03:25:55;;;;;;;9.98;2.20;;;7.00;99.90;;;;;;5050604;28;20076;-61
2023/05/16 03:28:21;;;;;;;8.43;1.75;;;7.00;99.90;;;;;;5051388;28;20084;-61
2023/05/16 03:30:47;;;;;;;11.30;1.70;;;7.00;99.90;;;;;;5049988;28;20049;-61
2023/05/16 03:33:12;;;;;;;10.25;1.70;;;7.00;99.90;;;;;;5050694;28;20053;-60
2023/05/16 03:35:39;;;;;;;12.38;1.60;;;7.00;99.90;;;;;;5049943;28;20033;-61
2023/05/16 03:38:05;;;;;;;12.50;1.83;;;7.00;99.90;;;;;;5051472;28;20040;-62
2023/05/16 03:40:30;;;;;;;11.68;1.92;;;7.00;99.90;;;;;;5050175;28;20047;-63
2023/05/16 03:42:56;;;;;;;14.20;1.65;;;6.90;99.90;;;;;;5049885;28;20045;-61
2023/05/16 03:45:22;;;;;;;8.27;1.90;;;6.90;99.90;;;;;;5050028;28;20045;-62
2023/05/16 03:47:48;;;;;;;9.45;2.00;;;6.90;99.90;;;;;;5051363;28;20041;-62
2023/05/16 03:50:14;;;;;;;8.32;1.65;;;6.90;99.90;;;;;;5050283;28;20044;-61
2023/05/16 03:52:40;;;;;;;8.75;1.35;;;6.90;99.90;;;;;;5051123;28;20123;-60
2023/05/16 03:55:06;;;;;;;9.40;1.98;;;6.90;99.90;;;;;;5049878;28;20056;-63
2023/05/16 03:57:32;;;;;;;10.55;1.80;;;6.90;99.90;;;;;;5051005;28;20036;-60
2023/05/16 03:59:58;;;;;;;11.15;2.25;;;6.90;99.90;;;;;;5049733;28;20400;-62
2023/05/16 04:02:24;;;;;;;9.45;2.05;;;6.90;99.90;;;;;;5050938;28;20033;-62
2023/05/16 04:04:50;;;;;;;12.00;2.05;;;6.90;99.90;;;;;;5050948;28;20044;-63
2023/05/16 04:07:16;;;;;;;13.98;2.25;;;7.00;99.90;;;;;;5050092;28;20029;-62
2023/05/16 04:09:41;;;;;;;11.85;3.00;;;7.00;99.90;;;;;;5049785;28;20040;-62
2023/05/16 04:12:07;;;;;;;11.60;2.75;;;7.00;99.90;;;;;;5049447;28;20041;-61
2023/05/16 04:14:34;;;;;;;9.27;1.77;;;7.00;99.90;;;;;;5049703;28;20447;-61
2023/05/16 04:17:00;;;;;;;9.00;1.60;;;7.00;99.90;;;;;;5049187;28;20476;-60
2023/05/16 04:19:25;;;;;;;7.43;1.90;;;7.00;99.90;;;;;;5050981;28;20044;-63
2023/05/16 04:21:51;;;;;;;13.85;2.03;;;7.10;99.90;;;;;;5050592;28;20124;-61
2023/05/16 04:24:17;;;;;;;7.97;1.67;;;7.10;99.90;;;;;;5049480;28;20075;-62
2023/05/16 04:26:43;;;;;;;9.35;2.55;;;7.20;99.90;;;;;;5049736;28;20525;-62
2023/05/16 04:29:09;;;;;;;9.02;1.90;;;7.20;99.90;;;;;;5049390;28;20053;-62
2023/05/16 04:31:35;;;;;;;13.40;2.30;;;7.30;99.90;;;;;;5050689;28;20041;-62
2023/05/16 04:34:01;;;;;;;8.93;1.77;;;7.20;99.90;;;;;;5050430;28;20095;-63
2023/05/16 04:36:28;;;;;;;8.27;1.70;;;7.30;99.90;;;;;;5049164;28;20044;-60
2023/05/16 04:38:55;;;;;;;11.80;2.35;;;7.30;99.90;;;;;;5050421;28;20439;-62
2023/05/16 04:41:21;;;;;;;11.50;2.20;;;7.30;99.90;;;;;;5050156;28;20044;-62
2023/05/16 04:43:47;;;;;;;9.35;1.95;;;7.40;99.90;;;;;;5048782;28;20115;-62
2023/05/16 04:46:14;;;;;;;8.57;1.60;;;7.40;99.90;;;;;;5050598;28;20466;-61
2023/05/16 04:48:40;;;;;;;9.35;2.03;;;7.50;99.90;;;;;;5049004;28;20080;-62
2023/05/16 04:51:06;;;;;;;10.73;2.13;;;7.50;99.90;;;;;;5050306;28;20036;-61
2023/05/16 04:53:32;;;;;;;17.65;2.25;;;7.60;99.90;;;;;;5050239;28;20025;-61
2023/05/16 04:55:59;;;;;;;8.27;1.80;;;7.60;99.90;;;;;;5049975;28;20060;-62
2023/05/16 04:58:24;;;;;;;13.98;2.60;;;7.70;99.90;;;;;;5049332;28;20422;-62
2023/05/16 05:00:51;;;;;;;18.05;2.10;;;7.70;99.90;;;;;;5050313;28;20041;-61
2023/05/16 05:03:16;;;;;;;9.30;1.38;;;7.80;99.90;;;;;;5048850;28;20123;-62
2023/05/16 05:05:42;;;;;;;9.20;1.98;;;7.90;99.90;;;;;;5049960;28;20061;-61
2023/05/16 05:08:08;;;;;;;11.88;2.10;;;8.10;99.90;;;;;;5048746;28;20056;-63
2023/05/16 05:10:35;;;;;;;13.18;2.22;;;8.10;99.90;;;;;;5050128;28;20040;-61
2023/05/16 05:13:00;;;;;;;8.98;1.90;;;8.30;99.90;;;;;;5049919;28;20670;-65
2023/05/16 05:15:26;;;;;;;9.05;2.22;;;8.30;99.90;;;;;;5048650;28;20044;-61
2023/05/16 05:17:52;;;;;;;11.70;2.05;;;8.40;99.90;;;;;;5049157;28;20049;-62
2023/05/16 05:20:18;;;;;;;10.27;1.80;;;8.50;99.90;;;;;;5049003;28;20385;-62
2023/05/16 05:22:43;;;;;;;12.43;2.20;;;8.60;99.90;;;;;;5047152;28;20047;-61
2023/05/16 05:25:09;;;;;;;9.85;1.70;;;8.70;99.90;;;;;;5049072;28;20499;-61
2023/05/16 05:27:35;;;;;;;12.90;1.98;;;8.70;99.90;;;;;;5048671;28;20056;-63
2023/05/16 05:30:02;;;;;;;9.35;2.15;;;8.80;99.90;;;;;;5047711;28;20566;-63
2023/05/16 05:32:28;;;;;;;15.63;1.88;;;8.90;99.90;;;;;;5047435;28;20377;-61
2023/05/16 05:34:54;;;;;;;9.02;2.05;;;9.00;99.90;;;;;;5049409;28;20044;-62
2023/05/16 05:37:20;;;;;;;8.13;1.90;;;9.00;99.90;;;;;;5048840;28;20047;-63
2023/05/16 05:39:45;;;;;;;8.13;1.67;;;9.00;99.90;;;;;;5047633;28;20045;-62
2023/05/16 05:42:11;;;;;;;13.50;2.05;;;9.10;99.90;;;;;;5047834;28;20028;-62
2023/05/16 05:44:37;;;;;;;11.40;1.98;;;9.20;99.90;;;;;;5047690;28;20032;-62
2023/05/16 05:47:06;;;;;;;8.85;1.80;;;9.30;99.90;;;;;;5048605;28;20045;-63
2023/05/16 05:49:32;;;;;;;8.15;1.95;;;9.40;99.90;;;;;;5047605;28;20040;-61
2023/05/16 05:51:58;;;;;;;9.30;1.75;;;9.60;99.90;;;;;;5047416;28;20033;-64
2023/05/16 05:54:24;;;;;;;8.02;1.95;;;9.60;99.90;;;;;;5051271;28;20502;-61
2023/05/16 05:56:50;;;;;;;8.05;1.70;;;9.70;99.90;;;;;;5052313;28;20522;-60
2023/05/16 05:59:15;;;;;;;9.15;1.67;;;9.80;99.90;;;;;;5067980;28;20037;-63
2023/05/16 06:01:42;;;;;;;8.18;1.50;;;9.90;99.90;;;;;;5052150;28;20037;-62
2023/05/16 06:04:08;;;;;;;9.02;1.95;;;10.00;99.90;;;;;;5051122;28;20049;-61
2023/05/16 06:06:34;;;;;;;8.10;1.58;;;10.10;99.90;;;;;;5051976;28;20051;-63
2023/05/16 06:09:00;;;;;;;10.00;1.98;;;10.20;99.90;;;;;;5050613;28;20037;-61
2023/05/16 06:11:25;;;;;;;9.93;1.63;;;10.30;99.90;;;;;;5050776;28;20088;-63
2023/05/16 06:13:51;;;;;;;10.25;1.70;;;10.40;99.90;;;;;;5052153;28;20494;-62
2023/05/16 06:16:17;;;;;;;8.35;1.50;;;10.40;99.90;;;;;;5050584;28;20072;-62
2023/05/16 06:18:43;;;;;;;9.73;1.73;;;10.60;99.90;;;;;;5052005;28;20463;-60
2023/05/16 06:21:09;;;;;;;11.27;1.98;;;10.70;99.90;;;;;;5050027;28;20125;-63
2023/05/16 06:23:35;;;;;;;7.72;1.80;;;10.80;99.90;;;;;;5034269;28;20048;-64
2023/05/16 06:26:02;;;;;;;5.90;1.15;;;11.00;99.90;;;;;;5052901;28;20495;-60
2023/05/16 06:28:28;;;;;;;9.70;2.00;;;11.00;99.90;;;;;;5053142;28;20041;-63
2023/05/16 06:30:53;;;;;;;8.82;2.25;;;11.20;99.90;;;;;;5051286;28;20044;-62
2023/05/16 06:33:19;;;;;;;5.40;1.23;;;11.00;99.90;;;;;;5052966;28;20048;-60
2023/05/16 06:35:46;;;;;;;6.72;0.90;;;11.10;99.90;;;;;;5051260;28;20048;-60
2023/05/16 06:38:12;;;;;;;10.98;1.55;;;11.30;99.90;;;;;;5051441;28;20049;-62
2023/05/16 06:40:38;;;;;;;10.05;1.35;;;11.40;99.90;;;;;;5052710;28;20048;-62
2023/05/16 06:43:03;;;;;;;6.78;1.27;;;11.50;99.90;;;;;;5052508;28;20043;-62
2023/05/16 06:45:29;;;;;;;7.28;1.38;;;11.70;99.90;;;;;;5051423;28;20410;-60
2023/05/16 06:47:55;;;;;;;6.15;1.45;;;11.80;99.90;;;;;;5051083;28;20040;-61
2023/05/16 06:50:21;;;;;;;6.85;1.30;;;11.80;99.90;;;;;;5051202;28;20044;-62
2023/05/16 06:52:47;;;;;;;7.55;1.63;;;11.80;99.90;;;;;;5052482;28;20044;-62
2023/05/16 06:55:13;;;;;;;9.25;1.95;;;11.90;99.90;;;;;;5052218;28;20547;-63
2023/05/16 06:57:38;;;;;;;16.67;2.05;;;12.00;99.90;;;;;;5050927;28;20074;-65
2023/05/16 07:00:05;;;;;;;5.07;1.38;;;12.10;99.90;;;;;;5052154;28;20041;-63
2023/05/16 07:02:30;;;;;;;5.18;1.20;;;12.20;99.90;;;;;;5051122;28;20075;-60
2023/05/16 07:04:56;;;;;;;6.88;1.85;;;12.20;99.90;;;;;;5050054;28;20496;-62
2023/05/16 07:07:21;;;;;;;5.90;1.10;;;12.10;99.90;;;;;;5052276;28;20439;-60
2023/05/16 07:09:47;;;;;;;5.95;1.20;;;12.20;99.90;;;;;;5051356;28;20040;-60
2023/05/16 07:12:13;;;;;;;6.07;1.20;;;12.30;99.90;;;;;;5051865;28;20033;-61
2023/05/16 07:14:39;;;;;;;4.85;0.82;;;12.60;99.90;;;;;;5050865;28;20120;-62
2023/05/16 07:17:05;;;;;;;5.57;1.33;;;12.60;99.90;;;;;;5050213;28;20094;-62
2023/05/16 07:19:31;;;;;;;5.05;1.15;;;12.60;99.90;;;;;;5052273;28;20476;-65
2023/05/16 07:21:56;;;;;;;5.65;1.13;;;12.50;99.90;;;;;;5051655;28;20032;-60
2023/05/16 07:24:22;;;;;;;6.47;0.98;;;12.30;99.90;;;;;;5066964;28;20091;-63
2023/05/16 07:26:48;;;;;;;6.68;1.58;;;12.00;99.90;;;;;;5052099;28;20049;-60
2023/05/16 07:29:14;;;;;;;4.75;1.00;;;11.90;99.90;;;;;;5050209;28;20048;-62
2023/05/16 07:31:40;;;;;;;5.72;0.90;;;11.80;99.90;;;;;;5045226;28;20396;-63
2023/05/16 07:34:06;;;;;;;5.53;0.93;;;11.60;99.90;;;;;;5050150;28;20040;-61
2023/05/16 07:36:33;;;;;;;7.13;1.20;;;11.50;99.90;;;;;;5050268;28;20542;-62
2023/05/16 07:38:58;;;;;;;6.82;1.23;;;11.40;99.90;;;;;;5066741;28;20045;-64
2023/05/16 07:41:24;;;;;;;9.30;1.45;;;11.20;99.90;;;;;;5050482;28;20499;-61
2023/05/16 07:43:50;;;;;;;7.70;0.98;;;11.10;99.90;;;;;;5050715;28;20043;-61
2023/05/16 07:46:15;;;;;;;6.03;1.90;;;10.90;99.90;;;;;;5049977;28;20048;-60
2023/05/16 07:48:41;;;;;;;4.05;1.27;;;11.10;99.90;;;;;;5050365;28;20650;-60
2023/05/16 07:51:07;;;;;;;5.93;1.10;;;11.30;99.90;;;;;;5051101;28;20049;-63
2023/05/16 07:53:32;;;;;;;4.25;0.90;;;11.70;99.90;;;;;;5051279;28;20128;-62
2023/05/16 07:55:58;;;;;;;6.10;1.00;;;12.00;99.90;;;;;;5049874;28;20574;-62
2023/05/16 07:58:24;;;;;;;5.00;0.88;;;12.30;99.90;;;;;;5051190;28;20067;-61
2023/05/16 08:00:49;;;;;;;9.15;1.20;;;12.60;99.90;;;;;;5050009;28;20033;-61
2023/05/16 08:03:15;;;;;;;7.05;1.23;;;12.80;99.90;;;;;;5050924;28;20120;-62
2023/05/16 08:05:41;;;;;;;7.93;1.60;;;13.00;99.90;;;;;;5050973;28;20099;-61
2023/05/16 08:08:07;;;;;;;5.82;1.30;;;13.10;99.90;;;;;;5051159;28;20049;-61
2023/05/16 08:10:32;;;;;;;6.00;1.30;;;13.10;99.90;;;;;;5050881;28;20041;-63
2023/05/16 08:12:58;;;;;;;7.50;1.42;;;13.20;99.90;;;;;;5051070;28;20041;-62
2023/05/16 08:15:26;;;;;;;8.13;1.58;;;13.30;99.90;;;;;;5032603;28;20052;-61
2023/05/16 08:17:56;;;;;;;7.82;1.48;;;13.40;99.90;;;;;;5048424;28;20053;-64
2023/05/16 08:20:21;;;;;;;6.88;1.55;;;13.70;99.90;;;;;;5049657;28;20060;-63
2023/05/16 08:22:47;;;;;;;5.68;1.45;;;14.00;99.90;;;;;;5049590;28;20033;-65
2023/05/16 08:25:13;;;;;;;6.70;1.17;;;13.80;99.90;;;;;;5050656;28;20041;-62
2023/05/16 08:27:38;;;;;;;8.38;1.50;;;13.70;99.90;;;;;;5049349;28;20045;-62
2023/05/16 08:30:05;;;;;;;5.47;1.27;;;13.60;99.90;;;;;;5049659;28;20170;-62
2023/05/16 08:32:30;;;;;;;7.97;1.17;;;13.30;99.90;;;;;;5049036;28;20104;-63
2023/05/16 08:34:56;;;;;;;5.03;1.08;;;12.90;99.90;;;;;;5050468;28;20523;-63
2023/05/16 08:37:22;;;;;;;7.72;1.85;;;12.50;99.90;;;;;;5050468;28;20392;-63
2023/05/16 08:39:47;;;;;;;4.43;1.00;;;12.30;99.90;;;;;;5049708;28;20491;-64
2023/05/16 08:42:13;;;;;;;6.55;1.10;;;12.20;99.90;;;;;;5049102;28;20044;-62
2023/05/16 08:44:39;;;;;;;9.75;1.48;;;12.20;99.90;;;;;;5050256;28;20037;-62
2023/05/16 08:47:25;;;;;;;9.43;1.40;;;12.30;99.90;;;;;;5049153;28;20403;-62
2023/05/16 08:49:56;;;;;;;7.10;1.00;;;12.90;99.90;;;;;;5048920;28;20086;-62
2023/05/16 08:52:27;;;;;;;4.10;1.15;;;13.00;99.90;;;;;;5049402;28;20415;-61
2023/05/16 08:54:53;;;;;;;5.47;0.90;;;13.10;99.90;;;;;;5032177;28;20135;-60
2023/05/16 08:57:20;;;;;;;5.03;1.02;;;13.50;99.90;;;;;;5032556;28;20045;-61
2023/05/16 08:59:46;;;;;;;7.38;1.30;;;13.80;99.30;;;;;;5050134;28;20485;-61
2023/05/16 09:02:12;;;;;;;5.72;1.23;;;13.80;99.20;;;;;;5050299;28;20111;-61
2023/05/16 09:04:38;;;;;;;4.55;1.00;;;13.90;99.70;;;;;;5050044;28;20033;-64
2023/05/16 09:07:04;;;;;;;4.90;1.00;;;13.60;99.00;;;;;;5050280;28;20036;-63
2023/05/16 09:09:29;;;;;;;5.93;1.25;;;13.80;99.70;;;;;;5050028;28;20044;-60
2023/05/16 09:11:55;;;;;;;7.10;1.33;;;13.90;99.80;;;;;;5050192;28;20480;-63
2023/05/16 09:14:21;;;;;;;7.07;1.38;;;14.10;99.40;;;;;;5048775;28;20501;-61
2023/05/16 09:17:03;;;;;;;4.53;1.13;;;14.30;99.50;;;;;;5049977;28;20098;-63
2023/05/16 09:19:39;;;;;;;;;;;14.30;97.30;;;;;;5049113;28;20415;-60
2023/05/16 09:22:14;;;;;;;5.28;1.00;;;14.30;97.50;;;;;;5048897;28;19917;-63
2023/05/16 09:24:44;;;;;;;5.40;1.23;;;14.60;98.40;;;;;;5048421;28;20048;-63
2023/05/16 09:27:12;;;;;;;8.70;1.20;;;14.80;98.80;;;;;;5048929;28;20080;-62
2023/05/16 09:29:42;;;;;;;8.55;1.25;;;14.60;98.10;;;;;;5052834;28;20083;-61
2023/05/16 09:32:15;;;;;;;4.45;0.98;;;14.70;97.00;;;;;;5054152;28;20094;-63
2023/05/16 09:34:47;;;;;;;6.15;1.20;;;14.70;95.80;;;;;;5053731;28;20041;-62
2023/05/16 09:37:13;;;;;;;;;;;14.90;96.70;;;;;;5052904;28;20041;-61
2023/05/16 09:39:47;;;;;;;7.35;0.98;;;15.10;97.30;;;;;;5052606;28;19931;-62
2023/05/16 09:42:14;;;;;;;5.35;1.00;;;15.00;96.90;;;;;;5052560;28;20385;-61
2023/05/16 09:44:40;;;;;;;8.25;1.13;;;14.50;96.00;;;;;;5053392;28;20065;-63
2023/05/16 09:47:06;;;;;;;6.45;1.00;;;14.00;97.20;;;;;;5052386;28;20045;-60
2023/05/16 09:49:32;;;;;;;6.57;1.23;;;13.60;97.40;;;;;;5053602;28;20546;-60
2023/05/16 09:52:04;;;;;;;4.93;1.10;;;13.20;99.00;;;;;;5052186;28;20094;-63
2023/05/16 09:54:31;;;;;;;5.50;1.10;;;13.20;99.90;;;;;;5052471;28;20499;-61
2023/05/16 09:56:57;;;;;;;8.75;1.15;;;13.40;99.90;;;;;;5053493;28;20041;-62
2023/05/16 09:59:23;;;;;;;7.10;1.10;;;13.90;99.90;;;;;;5052232;28;20483;-62
2023/05/16 10:01:51;;;;;;;6.47;1.10;;;13.90;98.90;;;;;;5051970;28;20120;-62
2023/05/16 10:04:17;;;;;;;6.20;1.10;;;13.80;99.50;;;;;;5052087;28;20041;-62
2023/05/16 10:06:44;;;;;;;5.72;1.10;;;13.70;99.90;;;;;;5053314;28;20040;-62
2023/05/16 10:09:11;;;;;;;8.95;1.15;;;13.50;99.90;;;;;;5035388;28;20075;-61
2023/05/16 10:11:42;;;;;;;6.25;1.20;;;13.70;99.90;;;;;;5053106;28;20041;-63
2023/05/16 10:14:10;;;;;;;3.42;0.80;;;14.30;99.90;;;;;;5051908;28;20049;-60
2023/05/16 10:16:41;;;;;;;5.20;1.17;;;14.70;99.90;;;;;;5052995;28;20032;-62
2023/05/16 10:19:07;;;;;;;5.53;1.10;;;14.90;99.30;;;;;;5052778;28;20053;-62
2023/05/16 10:21:34;;;;;;;4.53;1.10;;;15.20;97.70;;;;;;5053004;28;20496;-61
2023/05/16 10:24:03;;;;;;;3.35;0.98;;;15.60;97.70;;;;;;5052917;28;20484;-63
2023/05/16 10:26:31;;;;;;;9.60;1.23;;;15.30;92.70;;;;;;5053414;28;20072;-64
2023/05/16 10:28:57;;;;;;;5.82;1.35;;;15.30;94.30;;;;;;5052606;28;20033;-63
2023/05/16 10:31:23;;;;;;;8.10;1.33;;;15.20;94.80;;;;;;5052991;28;20090;-61
2023/05/16 10:33:49;;;;;;;6.93;1.67;;;15.10;95.50;;;;;;5052760;28;20052;-64
2023/05/16 10:36:16;;;;;;;4.88;1.02;;;14.70;95.70;;;;;;5051443;28;20392;-61
2023/05/16 10:38:42;;;;;;;6.53;1.30;;;14.10;96.10;;;;;;5052557;28;20037;-63
2023/05/16 10:41:08;;;;;;;4.85;0.98;;;13.90;97.70;;;;;;5051536;28;20063;-61
2023/05/16 10:43:35;;;;;;;5.38;1.30;;;13.90;98.40;;;;;;5052707;28;20055;-62
2023/05/16 10:46:11;;;;;;;5.70;1.15;;;14.20;97.90;;;;;;5034444;28;20060;-65
2023/05/16 10:48:41;;;;;;;4.13;0.90;;;14.80;99.10;;;;;;5051567;28;20483;-61
2023/05/16 10:51:33;;;;;;;5.15;1.00;;;15.30;98.50;;;;;;5052600;28;20036;-63
2023/05/16 10:54:08;;;;;;;6.47;1.30;;;15.90;98.50;;;;;;5052319;28;20042;-61
2023/05/16 10:56:35;;;;;;;5.78;1.40;;;16.20;96.90;;;;;;5052428;28;20103;-59
2023/05/16 10:59:01;;;;;;;6.40;1.33;;;16.30;96.40;;;;;;5052051;28;20055;-65
2023/05/16 11:01:28;;;;;;;4.88;1.30;;;15.90;94.30;;;;;;5052527;28;20139;-63
2023/05/16 11:04:03;;;;;;;10.23;1.48;;;15.30;93.70;;;;;;5051973;28;20041;-61
2023/05/16 11:06:43;;;;;;;4.65;1.25;;;14.80;94.80;;;;;;5050885;28;20119;-63
2023/05/16 11:09:14;;;;;;;3.85;1.30;;;14.70;95.90;;;;;;5052031;28;20036;-61
2023/05/16 11:11:50;;;;;;;3.42;1.00;;;14.60;94.90;;;;;;5052413;28;20029;-62
2023/05/16 11:14:21;;;;;;;5.13;1.10;;;14.70;96.00;;;;;;5050862;28;20391;-61
2023/05/16 11:16:51;;;;;;;5.60;0.90;;;14.90;96.50;;;;;;5051929;28;20037;-61
2023/05/16 11:19:29;;;;;;;5.45;1.48;;;15.20;97.00;;;;;;5051693;28;20438;-61
2023/05/16 11:22:06;;;;;;;5.65;1.15;;;15.50;96.60;;;;;;5050756;28;20071;-63
2023/05/16 11:24:33;;;;;;;4.78;1.10;;;15.70;96.50;;;;;;5050660;28;20110;-61
2023/05/16 11:27:00;;;;;;;6.03;1.25;;;15.40;94.90;;;;;;5051641;28;20037;-61
2023/05/16 11:29:34;;;;;;;4.25;1.10;;;15.60;95.20;;;;;;5051771;28;20029;-60
2023/05/16 11:32:02;;;;;;;7.15;1.77;;;15.70;93.90;;;;;;5050711;28;20104;-63
2023/05/16 11:34:29;;;;;;;7.45;1.40;;;15.50;94.00;;;;;;5050681;28;20051;-63
2023/05/16 11:36:55;;;;;;;5.65;1.38;;;15.30;95.00;;;;;;5051357;28;20090;-63
2023/05/16 11:39:24;;;;;;;5.93;1.35;;;14.90;94.10;;;;;;5050205;28;20061;-62
2023/05/16 11:41:52;;;;;;;5.03;1.40;;;14.70;95.00;;;;;;5051801;28;20033;-60
2023/05/16 11:44:17;;;;;;;5.65;1.30;;;14.30;95.10;;;;;;5050046;28;20044;-61
2023/05/16 11:46:43;;;;;;;7.18;1.50;;;14.30;96.20;;;;;;5033662;28;20060;-60
2023/05/16 11:49:09;;;;;;;6.93;1.50;;;14.40;97.30;;;;;;5050056;28;20490;-62
2023/05/16 11:51:42;;;;;;;7.65;1.20;;;14.20;97.70;;;;;;5050088;28;20068;-62
2023/05/16 11:54:11;;;;;;;7.53;1.35;;;14.40;98.90;;;;;;5049787;28;20036;-63
2023/05/16 11:56:39;;;;;;;5.68;1.30;;;14.10;99.50;;;;;;5051167;28;20044;-60
2023/05/16 11:59:06;;;;;;;6.53;1.50;;;13.70;99.60;;;;;;5049540;28;20089;-62
2023/05/16 12:01:38;;;;;;;7.88;1.67;;;13.40;99.90;;;;;;5066030;28;20029;-63
2023/05/16 12:04:13;;;;;;;6.88;1.52;;;13.30;99.90;;;;;;5049658;28;20037;-62
2023/05/16 12:06:42;;;;;;;6.95;1.25;;;13.40;99.90;;;;;;5049983;28;20553;-62
2023/05/16 12:09:12;;;;;;;5.32;1.35;;;13.40;99.90;;;;;;5049832;28;20427;-60
2023/05/16 12:11:42;;;;;;;5.72;1.40;;;13.30;99.90;;;;;;5049558;28;20106;-63
2023/05/16 12:14:10;;;;;;;5.35;1.20;;;13.10;99.90;;;;;;5049448;28;20048;-62
2023/05/16 12:16:37;;;;;;;3.70;0.93;;;13.00;99.90;;;;;;5049541;28;20049;-62
2023/05/16 12:19:07;;;;;;;3.90;1.00;;;13.00;99.90;;;;;;5049351;28;20048;-63
2023/05/16 12:21:34;;;;;;;6.75;1.30;;;13.10;99.90;;;;;;5049392;28;20045;-63
2023/05/16 12:24:00;;;;;;;4.53;0.93;;;13.20;99.90;;;;;;5049344;28;20041;-61
2023/05/16 12:26:29;;;;;;;6.25;1.20;;;13.30;99.90;;;;;;5050502;28;20171;-63
2023/05/16 12:28:59;;;;;;;6.70;1.25;;;13.30;99.90;;;;;;5050998;28;20051;-62
2023/05/16 12:31:25;;;;;;;4.80;1.40;;;13.60;99.90;;;;;;5049134;28;20054;-63
2023/05/16 12:33:55;;;;;;;2.60;1.10;;;13.80;99.90;;;;;;5049716;28;20384;-61
2023/05/16 12:36:27;;;;;;;5.97;1.35;;;13.80;99.90;;;;;;5049118;28;20167;-61
2023/05/16 12:38:52;;;;;;;4.15;1.40;;;13.70;99.90;;;;;;5050744;28;20112;-62
2023/05/16 12:41:20;;;;;;;5.15;1.50;;;13.70;99.90;;;;;;5050523;28;20116;-60
2023/05/16 12:43:46;;;;;;;4.28;1.35;;;13.50;99.90;;;;;;5050508;28;20048;-62
2023/05/16 12:46:12;;;;;;;8.55;1.95;;;13.40;99.90;;;;;;5049007;28;20052;-62
2023/05/16 12:48:40;;;;;;;5.88;1.48;;;13.40;99.90;;;;;;5049366;28;20480;-62
2023/05/16 12:51:17;;;;;;;4.80;1.55;;;13.30;99.90;;;;;;5049073;28;20439;-62